Time;durP1;ratioP1;P1;durP2;ratioP2;P2;SDS_P1;SDS_P2;PMS_P1;PMS_P2;Temp;Humidity;BMP_temperature;BMP_pressure;BME280_temperature;BME280_humidity;BME280_pressure;Samples;Min_cycle;Max_cycle;Signal;HPM_P1;HPM_P2
2021/09/23 00:00:31;;;;;;;23.27;12.77;;;;;;;;;;5010354;28;20030;-65
2021/09/23 00:05:26;;;;;;;20.55;12.13;;;;;;;;;;5015241;28;20021;-66
2021/09/23 00:07:52;;;;;;;20.30;10.98;;;;;;;;;;5017867;28;20076;-65
2021/09/23 00:10:20;;;;;;;21.83;11.95;;;;;;;;;;5013921;28;20026;-66
2021/09/23 00:12:45;;;;;;;21.27;12.18;;;;;;;;;;5069915;23;20071;-86
2021/09/23 00:15:11;;;;;;;26.67;12.95;;;;;;;;;;5072005;28;20056;-87
2021/09/23 00:17:37;;;;;;;27.20;12.43;;;;;;;;;;5085937;28;20548;-86
2021/09/23 00:20:03;;;;;;;26.75;15.20;;;;;;;;;;5064871;28;20521;-87
2021/09/23 00:22:28;;;;;;;26.80;13.27;;;;;;;;;;5070785;28;20036;-87
2021/09/23 00:24:53;;;;;;;24.30;13.68;;;;;;;;;;5072886;28;20024;-86
2021/09/23 00:27:18;;;;;;;26.95;14.45;;;;;;;;;;5073445;28;20024;-86
2021/09/23 00:29:43;;;;;;;27.17;14.48;;;;;;;;;;5070317;28;20017;-87
2021/09/23 00:32:09;;;;;;;27.07;13.20;;;;;;;;;;5070070;28;20017;-86
2021/09/23 00:34:34;;;;;;;21.88;13.43;;;;;;;;;;5070091;28;20269;-86
2021/09/23 00:36:59;;;;;;;28.35;12.68;;;;;;;;;;5071320;28;20472;-86
2021/09/23 00:39:25;;;;;;;28.20;13.18;;;;;;;;;;5070278;28;20399;-86
2021/09/23 00:41:51;;;;;;;24.00;13.82;;;;;;;;;;5070277;28;20472;-87
2021/09/23 00:44:20;;;;;;;27.75;13.70;;;;;;;;;;5069727;28;20107;-87
2021/09/23 00:46:46;;;;;;;31.85;13.90;;;;;;;;;;5070708;28;20105;-86
2021/09/23 00:49:11;;;;;;;28.25;13.75;;;;;;;;;;5071471;28;20452;-87
2021/09/23 00:51:37;;;;;;;25.67;12.85;;;;;;;;;;5064551;28;20107;-86
2021/09/23 00:54:02;;;;;;;23.35;12.52;;;;;;;;;;5050105;28;20688;-86
2021/09/23 00:56:27;;;;;;;25.55;12.68;;;;;;;;;;5049837;28;20537;-86
2021/09/23 00:58:53;;;;;;;27.33;13.10;;;;;;;;;;5055808;28;20024;-87
2021/09/23 01:01:18;;;;;;;30.67;13.75;;;;;;;;;;5071065;28;20032;-86
2021/09/23 01:03:43;;;;;;;21.13;12.52;;;;;;;;;;5070744;28;20016;-87
2021/09/23 01:06:09;;;;;;;23.20;13.48;;;;;;;;;;5069806;28;20436;-86
2021/09/23 01:08:36;;;;;;;23.35;13.27;;;;;;;;;;5069494;28;20596;-87
2021/09/23 01:11:02;;;;;;;23.33;13.95;;;;;;;;;;5071206;28;20012;-86
2021/09/23 01:13:27;;;;;;;21.05;12.43;;;;;;;;;;5070095;28;20119;-86
2021/09/23 01:15:52;;;;;;;23.63;13.40;;;;;;;;;;5068830;28;20028;-87
2021/09/23 01:18:17;;;;;;;25.45;14.45;;;;;;;;;;5069383;28;20081;-85
2021/09/23 01:20:44;;;;;;;25.45;14.07;;;;;;;;;;5069804;28;20021;-87
2021/09/23 01:23:09;;;;;;;33.90;14.43;;;;;;;;;;5069163;28;20091;-86
2021/09/23 01:25:34;;;;;;;23.73;13.90;;;;;;;;;;5069605;28;20112;-86
2021/09/23 01:27:59;;;;;;;24.13;13.55;;;;;;;;;;5069609;28;20049;-86
2021/09/23 01:30:25;;;;;;;26.75;13.23;;;;;;;;;;5069060;28;20123;-86
2021/09/23 01:32:51;;;;;;;27.67;14.27;;;;;;;;;;5068856;28;20020;-87
2021/09/23 01:35:16;;;;;;;28.73;14.43;;;;;;;;;;5069059;28;20047;-86
2021/09/23 01:37:41;;;;;;;23.58;12.93;;;;;;;;;;5070757;28;20047;-86
2021/09/23 01:40:07;;;;;;;32.40;13.60;;;;;;;;;;5070338;28;20484;-85
2021/09/23 01:42:32;;;;;;;24.67;11.35;;;;;;;;;;5068728;28;20062;-86
2021/09/23 01:44:58;;;;;;;22.38;12.95;;;;;;;;;;5068745;28;20181;-86
2021/09/23 01:47:23;;;;;;;32.53;13.32;;;;;;;;;;5068290;28;20020;-86
2021/09/23 01:49:48;;;;;;;25.63;13.02;;;;;;;;;;5069259;28;20016;-86
2021/09/23 01:52:13;;;;;;;21.33;12.85;;;;;;;;;;5068218;28;20488;-86
2021/09/23 01:54:38;;;;;;;20.75;12.57;;;;;;;;;;5068745;28;20511;-86
2021/09/23 01:57:04;;;;;;;20.20;12.17;;;;;;;;;;5068814;28;20016;-86
2021/09/23 01:59:29;;;;;;;25.98;13.10;;;;;;;;;;5068492;28;20795;-86
2021/09/23 02:01:54;;;;;;;22.92;11.43;;;;;;;;;;5069649;28;20070;-86
2021/09/23 02:04:19;;;;;;;29.13;12.85;;;;;;;;;;5067830;28;20078;-86
2021/09/23 02:06:45;;;;;;;24.90;12.27;;;;;;;;;;5068954;28;20044;-86
2021/09/23 02:09:10;;;;;;;21.13;12.75;;;;;;;;;;5070054;28;20062;-86
2021/09/23 02:11:35;;;;;;;26.80;12.68;;;;;;;;;;5068713;28;20028;-86
2021/09/23 02:14:00;;;;;;;24.10;11.00;;;;;;;;;;5067681;28;20033;-87
2021/09/23 02:16:26;;;;;;;24.90;12.13;;;;;;;;;;5068080;28;20059;-86
2021/09/23 02:18:51;;;;;;;19.80;11.95;;;;;;;;;;5068807;28;20052;-86
2021/09/23 02:21:16;;;;;;;21.47;11.43;;;;;;;;;;5070398;28;20023;-86
2021/09/23 02:23:41;;;;;;;22.27;11.45;;;;;;;;;;5068306;28;20300;-86
2021/09/23 02:26:06;;;;;;;25.52;11.93;;;;;;;;;;5069462;28;20384;-86
2021/09/23 02:28:34;;;;;;;22.10;11.40;;;;;;;;;;5066723;28;20115;-86
2021/09/23 02:30:59;;;;;;;21.23;12.23;;;;;;;;;;5070733;28;20507;-87
2021/09/23 02:33:25;;;;;;;19.50;11.40;;;;;;;;;;5068928;28;20086;-86
2021/09/23 02:35:50;;;;;;;24.30;11.73;;;;;;;;;;5068954;28;20033;-86
2021/09/23 02:38:15;;;;;;;23.13;11.98;;;;;;;;;;5068748;28;20105;-86
2021/09/23 02:40:40;;;;;;;24.30;12.70;;;;;;;;;;5068119;28;20021;-86
2021/09/23 02:43:05;;;;;;;17.85;10.35;;;;;;;;;;5067080;28;20479;-87
2021/09/23 02:45:31;;;;;;;25.25;11.73;;;;;;;;;;5069132;28;20031;-86
2021/09/23 02:47:56;;;;;;;21.17;11.20;;;;;;;;;;5068105;28;20040;-87
2021/09/23 02:50:21;;;;;;;28.02;12.43;;;;;;;;;;5067768;28;20465;-86
2021/09/23 02:52:46;;;;;;;18.73;11.50;;;;;;;;;;5067003;28;20024;-86
2021/09/23 02:55:12;;;;;;;22.35;11.45;;;;;;;;;;5069155;28;20384;-87
2021/09/23 02:57:37;;;;;;;21.10;11.43;;;;;;;;;;5068654;28;20093;-86
2021/09/23 03:00:03;;;;;;;22.30;11.60;;;;;;;;;;5068035;28;20059;-86
2021/09/23 03:02:28;;;;;;;23.85;10.70;;;;;;;;;;5068687;28;20737;-87
2021/09/23 03:04:53;;;;;;;21.23;11.18;;;;;;;;;;5068257;28;20021;-86
2021/09/23 03:07:19;;;;;;;19.77;11.93;;;;;;;;;;5067220;28;20017;-86
2021/09/23 03:09:44;;;;;;;20.05;11.23;;;;;;;;;;5067723;28;20259;-86
2021/09/23 03:12:09;;;;;;;20.02;11.45;;;;;;;;;;5067671;28;20016;-86
2021/09/23 03:14:34;;;;;;;22.55;10.52;;;;;;;;;;5068622;28;20024;-86
2021/09/23 03:16:59;;;;;;;16.65;9.90;;;;;;;;;;5068662;28;20051;-86
2021/09/23 03:19:26;;;;;;;18.50;10.75;;;;;;;;;;5068587;28;20492;-86
2021/09/23 03:21:52;;;;;;;18.45;10.65;;;;;;;;;;5068682;28;20038;-86
2021/09/23 03:24:17;;;;;;;21.02;10.70;;;;;;;;;;5067468;28;20552;-86
2021/09/23 03:26:43;;;;;;;21.77;11.23;;;;;;;;;;5067632;28;20024;-86
2021/09/23 03:29:09;;;;;;;20.75;10.23;;;;;;;;;;5068469;28;20029;-87
2021/09/23 03:31:35;;;;;;;17.63;9.63;;;;;;;;;;5068192;28;20016;-86
2021/09/23 03:34:00;;;;;;;19.63;10.00;;;;;;;;;;5069289;28;20063;-86
2021/09/23 03:36:25;;;;;;;25.00;10.40;;;;;;;;;;5068016;28;20778;-86
2021/09/23 03:38:53;;;;;;;31.77;10.68;;;;;;;;;;5068528;28;20115;-86
2021/09/23 03:41:19;;;;;;;19.33;10.60;;;;;;;;;;5072363;28;20008;-86
2021/09/23 03:43:44;;;;;;;25.45;11.43;;;;;;;;;;5072162;28;20028;-86
2021/09/23 03:46:09;;;;;;;21.88;10.18;;;;;;;;;;5070978;28;20364;-86
2021/09/23 03:48:34;;;;;;;19.60;10.23;;;;;;;;;;5073899;28;20020;-87
2021/09/23 03:50:59;;;;;;;22.70;10.18;;;;;;;;;;5073375;28;20357;-86
2021/09/23 03:53:25;;;;;;;19.02;10.38;;;;;;;;;;5071901;28;20466;-86
2021/09/23 03:55:50;;;;;;;20.58;11.13;;;;;;;;;;5070910;28;20036;-87
2021/09/23 03:58:16;;;;;;;22.05;10.25;;;;;;;;;;5070689;28;20379;-86
2021/09/23 04:00:41;;;;;;;22.30;11.13;;;;;;;;;;5071080;28;20395;-86
2021/09/23 04:03:06;;;;;;;19.60;10.85;;;;;;;;;;5070586;28;20028;-87
2021/09/23 04:05:31;;;;;;;23.98;10.57;;;;;;;;;;5070778;28;20021;-86
2021/09/23 04:07:56;;;;;;;20.17;9.95;;;;;;;;;;5069973;28;20020;-86
2021/09/23 04:10:22;;;;;;;18.75;8.70;;;;;;;;;;5070872;28;20023;-86
2021/09/23 04:12:49;;;;;;;20.88;9.82;;;;;;;;;;5070559;28;20036;-87
2021/09/23 04:15:15;;;;;;;15.27;9.50;;;;;;;;;;5070275;28;20024;-87
2021/09/23 04:17:40;;;;;;;21.15;11.35;;;;;;;;;;5069968;28;20074;-86
2021/09/23 04:20:06;;;;;;;21.38;10.90;;;;;;;;;;5069984;28;20115;-86
2021/09/23 04:22:31;;;;;;;18.90;9.57;;;;;;;;;;5069085;28;20097;-87
2021/09/23 04:24:56;;;;;;;16.92;9.80;;;;;;;;;;5070150;28;20070;-86
2021/09/23 04:27:21;;;;;;;18.30;10.68;;;;;;;;;;5069777;28;20031;-87
2021/09/23 04:29:47;;;;;;;17.70;10.55;;;;;;;;;;5070461;28;20013;-87
2021/09/23 04:32:12;;;;;;;20.35;10.95;;;;;;;;;;5070241;28;20017;-86
2021/09/23 04:34:38;;;;;;;21.23;10.68;;;;;;;;;;5072038;28;20024;-86
2021/09/23 04:37:03;;;;;;;21.63;11.63;;;;;;;;;;5072239;28;20035;-87
2021/09/23 04:39:29;;;;;;;20.95;11.10;;;;;;;;;;5071671;28;20104;-86
2021/09/23 04:41:54;;;;;;;18.85;9.32;;;;;;;;;;5069671;28;20027;-87
2021/09/23 04:44:19;;;;;;;18.63;10.40;;;;;;;;;;5070437;28;20472;-86
2021/09/23 04:46:44;;;;;;;20.67;10.13;;;;;;;;;;5069695;28;20073;-86
2021/09/23 04:49:10;;;;;;;18.40;9.25;;;;;;;;;;5070389;28;20020;-86
2021/09/23 04:51:35;;;;;;;16.08;9.13;;;;;;;;;;5067723;28;20028;-86
2021/09/23 04:54:02;;;;;;;18.23;9.93;;;;;;;;;;5068932;28;20025;-86
2021/09/23 04:56:27;;;;;;;20.02;9.30;;;;;;;;;;5076579;28;20001;-86
2021/09/23 04:58:52;;;;;;;18.95;9.98;;;;;;;;;;5094387;28;20021;-86
2021/09/23 05:01:17;;;;;;;19.85;10.80;;;;;;;;;;5093433;28;20070;-86
2021/09/23 05:03:42;;;;;;;17.05;10.20;;;;;;;;;;5085553;28;20024;-87
2021/09/23 05:06:08;;;;;;;21.35;9.75;;;;;;;;;;5070224;28;20092;-86
2021/09/23 05:08:33;;;;;;;22.05;9.73;;;;;;;;;;5071238;28;20066;-86
2021/09/23 05:10:58;;;;;;;18.17;10.52;;;;;;;;;;5070079;28;20012;-87
2021/09/23 05:13:23;;;;;;;20.17;8.60;;;;;;;;;;5068669;28;20082;-86
2021/09/23 05:15:49;;;;;;;18.13;9.68;;;;;;;;;;5069791;28;20029;-86
2021/09/23 05:18:14;;;;;;;20.92;10.27;;;;;;;;;;5071136;28;20479;-87
2021/09/23 05:20:39;;;;;;;20.98;9.40;;;;;;;;;;5070008;28;20645;-86
2021/09/23 05:23:05;;;;;;;17.20;9.88;;;;;;;;;;5069890;28;20032;-87
2021/09/23 05:25:30;;;;;;;15.23;9.60;;;;;;;;;;5070586;28;20056;-87
2021/09/23 05:27:56;;;;;;;19.27;9.77;;;;;;;;;;5070656;28;20020;-87
2021/09/23 05:30:21;;;;;;;18.63;9.35;;;;;;;;;;5069818;28;20134;-87
2021/09/23 05:32:47;;;;;;;20.40;9.80;;;;;;;;;;5077712;28;20053;-87
2021/09/23 05:35:12;;;;;;;17.70;10.43;;;;;;;;;;5087603;28;20022;-87
2021/09/23 05:37:38;;;;;;;22.33;9.93;;;;;;;;;;5086991;28;20043;-87
2021/09/23 05:40:03;;;;;;;15.63;9.65;;;;;;;;;;5086583;28;20055;-87
2021/09/23 05:42:28;;;;;;;25.38;10.02;;;;;;;;;;5079004;28;20027;-87
2021/09/23 05:44:54;;;;;;;22.52;9.55;;;;;;;;;;5075960;28;20029;-87
2021/09/23 05:47:19;;;;;;;17.73;9.93;;;;;;;;;;5073708;28;20024;-87
2021/09/23 05:49:44;;;;;;;18.80;10.60;;;;;;;;;;5071635;28;20017;-87
2021/09/23 05:52:09;;;;;;;14.95;9.18;;;;;;;;;;5071125;28;20024;-87
2021/09/23 05:54:35;;;;;;;18.80;10.02;;;;;;;;;;5073119;28;20099;-86
2021/09/23 05:57:00;;;;;;;19.80;9.90;;;;;;;;;;5072084;28;20032;-86
2021/09/23 05:59:26;;;;;;;22.17;10.25;;;;;;;;;;5069823;28;20024;-87
2021/09/23 06:01:54;;;;;;;22.73;9.63;;;;;;;;;;5070654;28;20021;-86
2021/09/23 06:04:20;;;;;;;17.30;9.38;;;;;;;;;;5079590;22;20088;-65
2021/09/23 06:06:45;;;;;;;17.67;9.35;;;;;;;;;;5037503;28;20060;-66
2021/09/23 06:09:10;;;;;;;23.80;9.67;;;;;;;;;;5031928;28;20033;-66
2021/09/23 06:11:37;;;;;;;16.35;9.07;;;;;;;;;;5041768;28;20343;-65
2021/09/23 06:14:03;;;;;;;15.90;8.82;;;;;;;;;;5051203;28;20020;-66
2021/09/23 06:16:28;;;;;;;15.33;8.50;;;;;;;;;;5051240;28;20381;-66
2021/09/23 06:18:53;;;;;;;13.70;8.13;;;;;;;;;;5050817;28;20359;-66
2021/09/23 06:21:18;;;;;;;16.88;8.10;;;;;;;;;;5051389;28;20252;-66
2021/09/23 06:23:43;;;;;;;13.00;8.20;;;;;;;;;;5050847;28;20383;-66
2021/09/23 06:26:09;;;;;;;12.02;7.22;;;;;;;;;;5051258;28;20036;-66
2021/09/23 06:28:34;;;;;;;13.85;7.40;;;;;;;;;;5051171;28;20024;-66
2021/09/23 06:31:01;;;;;;;21.08;7.88;;;;;;;;;;5050634;28;20025;-66
2021/09/23 06:33:27;;;;;;;17.15;7.55;;;;;;;;;;5051013;28;20021;-66
2021/09/23 06:35:52;;;;;;;13.57;7.18;;;;;;;;;;5050481;28;20492;-65
2021/09/23 06:38:17;;;;;;;16.83;7.07;;;;;;;;;;5050565;28;20366;-65
2021/09/23 06:40:42;;;;;;;13.97;7.37;;;;;;;;;;5049391;28;20290;-66
2021/09/23 06:43:07;;;;;;;10.00;6.10;;;;;;;;;;5050903;28;20267;-66
2021/09/23 06:45:32;;;;;;;11.57;6.25;;;;;;;;;;5050501;28;20362;-66
2021/09/23 06:47:58;;;;;;;14.20;6.45;;;;;;;;;;5051196;28;20021;-66
2021/09/23 06:50:23;;;;;;;9.50;4.25;;;;;;;;;;5051101;28;20075;-65
2021/09/23 06:52:48;;;;;;;15.27;5.65;;;;;;;;;;5050691;28;20024;-67
2021/09/23 06:55:14;;;;;;;17.03;5.33;;;;;;;;;;5050288;28;20087;-66
2021/09/23 06:57:39;;;;;;;14.63;6.03;;;;;;;;;;5050049;28;20374;-67
2021/09/23 07:00:05;;;;;;;14.05;5.70;;;;;;;;;;5050654;28;20021;-66
2021/09/23 07:02:30;;;;;;;11.93;5.63;;;;;;;;;;5050332;28;20021;-66
2021/09/23 07:04:55;;;;;;;9.93;4.80;;;;;;;;;;5050299;28;20060;-67
2021/09/23 07:07:20;;;;;;;12.93;5.53;;;;;;;;;;5050486;28;20360;-66
2021/09/23 07:09:46;;;;;;;9.88;5.70;;;;;;;;;;5050397;28;20272;-67
2021/09/23 07:12:13;;;;;;;6.78;3.50;;;;;;;;;;5049209;28;20473;-65
2021/09/23 07:14:38;;;;;;;11.90;5.47;;;;;;;;;;5039930;28;20052;-67
2021/09/23 07:17:03;;;;;;;7.30;5.27;;;;;;;;;;5048305;28;20465;-65
2021/09/23 07:19:29;;;;;;;9.00;5.17;;;;;;;;;;5041887;28;20295;-66
2021/09/23 07:21:54;;;;;;;10.68;4.80;;;;;;;;;;5049892;28;20600;-67
2021/09/23 07:24:20;;;;;;;7.93;4.68;;;;;;;;;;5050281;28;20028;-66
2021/09/23 07:26:45;;;;;;;10.50;4.80;;;;;;;;;;5049378;28;20529;-67
2021/09/23 07:29:14;;;;;;;12.20;5.40;;;;;;;;;;5050125;28;20263;-66
2021/09/23 07:31:40;;;;;;;8.75;4.45;;;;;;;;;;5050343;28;20025;-67
2021/09/23 07:34:05;;;;;;;12.90;5.70;;;;;;;;;;5050052;28;20432;-67
2021/09/23 07:36:30;;;;;;;7.77;4.87;;;;;;;;;;5050449;28;20079;-67
2021/09/23 07:38:55;;;;;;;11.02;5.85;;;;;;;;;;5050165;28;20343;-67
2021/09/23 07:41:20;;;;;;;7.90;5.20;;;;;;;;;;5049145;28;20021;-67
2021/09/23 07:43:46;;;;;;;15.33;6.40;;;;;;;;;;5049550;28;20263;-67
2021/09/23 07:46:11;;;;;;;9.70;6.25;;;;;;;;;;5053337;28;20275;-66
2021/09/23 07:48:36;;;;;;;10.03;4.90;;;;;;;;;;5050729;28;20017;-67
2021/09/23 07:51:01;;;;;;;10.23;5.07;;;;;;;;;;5050210;28;20256;-67
2021/09/23 07:53:28;;;;;;;10.43;5.18;;;;;;;;;;5049840;28;20298;-67
2021/09/23 07:55:53;;;;;;;9.52;4.45;;;;;;;;;;5049569;28;20461;-67
2021/09/23 07:58:18;;;;;;;8.65;5.32;;;;;;;;;;5050064;28;20029;-67
2021/09/23 08:00:43;;;;;;;11.38;6.05;;;;;;;;;;5050175;28;20040;-66
2021/09/23 08:03:09;;;;;;;12.35;5.70;;;;;;;;;;5049815;28;20020;-67
2021/09/23 08:05:34;;;;;;;11.93;6.07;;;;;;;;;;5049751;28;20525;-66
2021/09/23 08:07:59;;;;;;;11.20;5.93;;;;;;;;;;5049659;28;20028;-67
2021/09/23 08:10:24;;;;;;;13.82;5.40;;;;;;;;;;5050471;28;20251;-67
2021/09/23 08:12:50;;;;;;;9.65;4.80;;;;;;;;;;5049515;28;20013;-66
2021/09/23 08:15:15;;;;;;;8.32;5.65;;;;;;;;;;5049779;28;20208;-68
2021/09/23 08:17:40;;;;;;;10.37;4.60;;;;;;;;;;5049888;28;20504;-65
2021/09/23 08:20:06;;;;;;;11.93;5.15;;;;;;;;;;5050273;28;20264;-67
2021/09/23 08:22:31;;;;;;;15.00;5.50;;;;;;;;;;5049009;28;20113;-68
2021/09/23 08:24:57;;;;;;;17.30;5.85;;;;;;;;;;5049588;28;20055;-67
2021/09/23 08:27:22;;;;;;;11.90;5.73;;;;;;;;;;5053106;28;20392;-67
2021/09/23 08:29:47;;;;;;;8.07;4.88;;;;;;;;;;5053323;28;20623;-67
2021/09/23 08:32:17;;;;;;;11.40;5.60;;;;;;;;;;5053031;28;20049;-67
2021/09/23 08:34:42;;;;;;;;;;;;;;;;;;5053721;28;20250;-68
2021/09/23 08:37:07;;;;;;;12.45;5.68;;;;;;;;;;5053198;28;19913;-66
2021/09/23 08:39:33;;;;;;;13.75;6.03;;;;;;;;;;5053418;28;20096;-67
2021/09/23 08:41:58;;;;;;;9.93;5.87;;;;;;;;;;5053219;28;20563;-66
2021/09/23 08:44:23;;;;;;;8.43;4.57;;;;;;;;;;5052799;28;20748;-66
2021/09/23 08:46:48;;;;;;;8.82;4.50;;;;;;;;;;5052957;28;20267;-65
2021/09/23 08:49:13;;;;;;;12.57;5.50;;;;;;;;;;5053157;28;20358;-67
2021/09/23 08:51:39;;;;;;;22.70;2.70;;;;;;;;;;5053093;28;20012;-66
2021/09/23 08:54:04;;;;;;;16.37;5.53;;;;;;;;;;5052859;28;20429;-67
2021/09/23 08:56:30;;;;;;;13.25;5.90;;;;;;;;;;5053074;28;20256;-65
2021/09/23 08:58:55;;;;;;;11.60;4.82;;;;;;;;;;5052743;28;20029;-67
2021/09/23 09:01:23;;;;;;;13.75;4.90;;;;;;;;;;5052365;28;20028;-67
2021/09/23 09:03:57;;;;;;;10.93;4.85;;;;;;;;;;5052562;28;20028;-67
2021/09/23 09:06:22;;;;;;;8.82;3.88;;;;;;;;;;5052987;28;20498;-67
2021/09/23 09:08:47;;;;;;;7.17;4.17;;;;;;;;;;5052655;28;20029;-67
2021/09/23 09:11:13;;;;;;;9.60;4.27;;;;;;;;;;5052919;28;20247;-66
2021/09/23 09:13:43;;;;;;;5.95;3.20;;;;;;;;;;5050943;28;20048;-66
2021/09/23 09:16:14;;;;;;;10.43;3.40;;;;;;;;;;5052849;28;20032;-67
2021/09/23 09:18:40;;;;;;;12.65;4.07;;;;;;;;;;5052611;28;20032;-67
2021/09/23 09:21:11;;;;;;;6.45;3.17;;;;;;;;;;5052653;28;20021;-66
2021/09/23 09:23:47;;;;;;;10.57;3.97;;;;;;;;;;5052211;28;20033;-67
2021/09/23 09:26:34;;;;;;;11.02;4.10;;;;;;;;;;5052303;28;20013;-66
2021/09/23 09:29:03;;;;;;;5.75;3.80;;;;;;;;;;5049669;28;20116;-67
2021/09/23 09:31:28;;;;;;;9.00;3.58;;;;;;;;;;5052373;28;20021;-67
2021/09/23 09:33:55;;;;;;;9.65;3.75;;;;;;;;;;5052200;28;20466;-67
2021/09/23 09:36:34;;;;;;;7.35;3.55;;;;;;;;;;5051438;28;20013;-67
2021/09/23 09:39:12;;;;;;;7.97;3.75;;;;;;;;;;5052161;28;20021;-67
2021/09/23 09:41:42;;;;;;;7.88;3.80;;;;;;;;;;5052051;28;20532;-67
2021/09/23 09:44:10;;;;;;;8.18;2.88;;;;;;;;;;5051682;28;20025;-66
2021/09/23 09:46:38;;;;;;;16.92;4.22;;;;;;;;;;5041357;28;20087;-67
2021/09/23 09:49:04;;;;;;;11.77;4.40;;;;;;;;;;5050757;28;20024;-68
2021/09/23 09:51:38;;;;;;;8.95;4.70;;;;;;;;;;5051727;28;20021;-68
2021/09/23 09:54:03;;;;;;;6.97;3.28;;;;;;;;;;5051999;28;20036;-67
2021/09/23 09:56:29;;;;;;;7.55;3.67;;;;;;;;;;5050046;28;20017;-67
2021/09/23 09:59:12;;;;;;;13.10;3.90;;;;;;;;;;5051021;28;20052;-66
2021/09/23 10:01:39;;;;;;;7.20;3.65;;;;;;;;;;5051075;28;20104;-68
2021/09/23 10:04:04;;;;;;;13.02;4.85;;;;;;;;;;5051135;28;20017;-67
2021/09/23 10:06:30;;;;;;;11.32;3.70;;;;;;;;;;5050385;28;20055;-67
2021/09/23 10:08:56;;;;;;;12.50;4.55;;;;;;;;;;5038480;28;20485;-67
2021/09/23 10:11:21;;;;;;;8.43;3.78;;;;;;;;;;5031120;28;20021;-66
2021/09/23 10:13:46;;;;;;;8.02;3.45;;;;;;;;;;5032609;28;20286;-67
2021/09/23 10:16:12;;;;;;;11.10;3.70;;;;;;;;;;5051187;28;20083;-68
2021/09/23 10:18:38;;;;;;;8.63;3.08;;;;;;;;;;5051539;28;20426;-68
2021/09/23 10:21:03;;;;;;;10.32;3.42;;;;;;;;;;5044439;28;20022;-68
2021/09/23 10:23:31;;;;;;;6.75;3.63;;;;;;;;;;5047078;28;20470;-67
2021/09/23 10:25:59;;;;;;;5.50;2.97;;;;;;;;;;5031122;28;20017;-67
2021/09/23 10:28:25;;;;;;;6.47;3.20;;;;;;;;;;5040883;28;20024;-67
2021/09/23 10:30:51;;;;;;;11.30;3.47;;;;;;;;;;5051501;28;20048;-68
2021/09/23 10:33:16;;;;;;;11.75;3.95;;;;;;;;;;5050850;28;20497;-68
2021/09/23 10:35:41;;;;;;;8.18;3.50;;;;;;;;;;5051144;28;20362;-68
2021/09/23 10:38:07;;;;;;;12.83;3.77;;;;;;;;;;5050893;28;20288;-68
2021/09/23 10:40:34;;;;;;;11.32;3.92;;;;;;;;;;5050555;28;20679;-68
2021/09/23 10:43:03;;;;;;;12.55;3.55;;;;;;;;;;5050442;28;20025;-68
2021/09/23 10:45:29;;;;;;;13.88;3.67;;;;;;;;;;5050448;28;20021;-68
2021/09/23 10:47:58;;;;;;;10.90;3.83;;;;;;;;;;5050732;28;20025;-68
2021/09/23 10:50:24;;;;;;;6.38;2.83;;;;;;;;;;5050530;28;20358;-67
2021/09/23 10:52:49;;;;;;;9.18;3.15;;;;;;;;;;5050293;28;20024;-68
2021/09/23 10:55:15;;;;;;;6.93;3.25;;;;;;;;;;5050324;28;20025;-67
2021/09/23 10:57:40;;;;;;;8.07;3.00;;;;;;;;;;5050674;28;20092;-67
2021/09/23 11:00:08;;;;;;;10.07;3.05;;;;;;;;;;5050687;28;20429;-68
2021/09/23 11:02:33;;;;;;;11.35;3.42;;;;;;;;;;5050231;28;20083;-67
2021/09/23 11:05:00;;;;;;;17.63;4.25;;;;;;;;;;5050732;28;20025;-68
2021/09/23 11:07:27;;;;;;;5.05;2.55;;;;;;;;;;5050393;28;20017;-67
2021/09/23 11:10:11;;;;;;;15.43;3.53;;;;;;;;;;5050092;28;20040;-67
2021/09/23 11:12:37;;;;;;;7.15;2.72;;;;;;;;;;5049997;28;20039;-67
2021/09/23 11:15:03;;;;;;;7.30;2.88;;;;;;;;;;5050497;28;20031;-68
2021/09/23 11:17:29;;;;;;;11.40;2.85;;;;;;;;;;5050371;28;20216;-66
2021/09/23 11:20:00;;;;;;;13.32;3.13;;;;;;;;;;5050112;28;20036;-68
2021/09/23 11:22:31;;;;;;;11.13;2.78;;;;;;;;;;5050066;28;20036;-67
2021/09/23 11:24:57;;;;;;;9.85;2.90;;;;;;;;;;5050086;28;20112;-68
2021/09/23 11:27:22;;;;;;;18.85;2.85;;;;;;;;;;5050338;28;20519;-68
2021/09/23 11:29:47;;;;;;;11.60;2.40;;;;;;;;;;5050090;28;20037;-67
2021/09/23 11:32:12;;;;;;;11.23;2.30;;;;;;;;;;5050235;28;20028;-69
2021/09/23 11:34:38;;;;;;;15.18;2.85;;;;;;;;;;5050088;28;20136;-67
2021/09/23 11:37:05;;;;;;;8.68;2.20;;;;;;;;;;5050099;28;20025;-66
2021/09/23 11:39:30;;;;;;;7.15;2.38;;;;;;;;;;5050058;28;20041;-68
2021/09/23 11:42:15;;;;;;;9.50;2.45;;;;;;;;;;5050113;28;20507;-67
2021/09/23 11:44:42;;;;;;;12.00;3.10;;;;;;;;;;5048461;28;20031;-66
2021/09/23 11:47:11;;;;;;;7.53;2.63;;;;;;;;;;5049968;28;20013;-68
2021/09/23 11:49:36;;;;;;;24.67;3.17;;;;;;;;;;5050114;28;20029;-67
2021/09/23 11:52:01;;;;;;;18.03;3.57;;;;;;;;;;5049687;28;20096;-63
2021/09/23 11:54:26;;;;;;;11.48;2.90;;;;;;;;;;5049915;28;20728;-66
2021/09/23 11:56:52;;;;;;;8.32;2.53;;;;;;;;;;5049445;28;20021;-65
2021/09/23 11:59:23;;;;;;;8.85;3.72;;;;;;;;;;5048535;28;20036;-65
2021/09/23 12:01:58;;;;;;;14.40;3.30;;;;;;;;;;5053891;28;20673;-66
2021/09/23 12:04:23;;;;;;;9.25;3.20;;;;;;;;;;5051463;28;20080;-65
2021/09/23 12:07:00;;;;;;;13.80;3.07;;;;;;;;;;5048334;28;20048;-67
2021/09/23 12:09:26;;;;;;;18.30;3.60;;;;;;;;;;5054172;28;20025;-65
2021/09/23 12:11:51;;;;;;;9.70;3.00;;;;;;;;;;5053813;28;20355;-65
2021/09/23 12:14:16;;;;;;;10.43;2.97;;;;;;;;;;5053837;28;20272;-65
2021/09/23 12:16:41;;;;;;;12.73;3.27;;;;;;;;;;5053727;28;20244;-66
2021/09/23 12:19:14;;;;;;;4.77;2.37;;;;;;;;;;5053782;28;20256;-65
2021/09/23 12:21:39;;;;;;;14.02;3.40;;;;;;;;;;5053755;28;20021;-66
2021/09/23 12:24:04;;;;;;;11.25;3.25;;;;;;;;;;5053427;28;20025;-66
2021/09/23 12:26:33;;;;;;;8.33;3.20;;;;;;;;;;5053596;28;20029;-66
2021/09/23 12:29:00;;;;;;;14.10;3.70;;;;;;;;;;5053188;28;20263;-66
2021/09/23 12:31:28;;;;;;;8.68;3.35;;;;;;;;;;5053595;28;20103;-65
2021/09/23 12:33:54;;;;;;;12.57;3.60;;;;;;;;;;5053286;28;20017;-65
2021/09/23 12:36:24;;;;;;;9.60;3.78;;;;;;;;;;5053102;28;20017;-66
2021/09/23 12:39:01;;;;;;;10.50;2.92;;;;;;;;;;5053419;28;20032;-65
2021/09/23 12:41:26;;;;;;;8.90;3.17;;;;;;;;;;5053397;28;20069;-66
2021/09/23 12:44:01;;;;;;;12.25;3.70;;;;;;;;;;5053251;28;20031;-65
2021/09/23 12:46:29;;;;;;;8.07;3.80;;;;;;;;;;5053452;28;20017;-65
2021/09/23 12:49:10;;;;;;;13.45;3.20;;;;;;;;;;5053089;28;20024;-65
2021/09/23 12:51:36;;;;;;;15.70;3.60;;;;;;;;;;5052900;28;20078;-65
2021/09/23 12:54:14;;;;;;;10.80;3.65;;;;;;;;;;5052589;28;20496;-65
2021/09/23 12:56:40;;;;;;;10.55;3.47;;;;;;;;;;5049658;28;20036;-66
2021/09/23 12:59:18;;;;;;;9.85;3.38;;;;;;;;;;5049725;28;20025;-66
2021/09/23 13:01:43;;;;;;;13.18;3.63;;;;;;;;;;5045534;28;20039;-66
2021/09/23 13:04:21;;;;;;;10.77;3.57;;;;;;;;;;5052211;28;20021;-67
2021/09/23 13:06:47;;;;;;;9.35;3.72;;;;;;;;;;5052673;28;20339;-68
2021/09/23 13:09:12;;;;;;;18.30;3.60;;;;;;;;;;5052495;28;20029;-66
2021/09/23 13:11:37;;;;;;;6.75;3.40;;;;;;;;;;5052114;28;20104;-66
2021/09/23 13:14:18;;;;;;;6.20;3.70;;;;;;;;;;5052584;28;20102;-65
2021/09/23 13:16:43;;;;;;;8.32;3.35;;;;;;;;;;5052623;28;20309;-67
2021/09/23 13:19:08;;;;;;;9.77;3.50;;;;;;;;;;5052430;28;20727;-66
2021/09/23 13:21:36;;;;;;;7.07;4.07;;;;;;;;;;5052898;28;20271;-68
2021/09/23 13:24:01;;;;;;;10.93;3.85;;;;;;;;;;5052446;28;20043;-67
2021/09/23 13:26:27;;;;;;;8.93;3.73;;;;;;;;;;5052444;28;20477;-66
2021/09/23 13:28:52;;;;;;;20.80;3.50;;;;;;;;;;5052565;28;20032;-68
2021/09/23 13:31:18;;;;;;;7.63;3.90;;;;;;;;;;5052323;28;20534;-66
2021/09/23 13:33:44;;;;;;;10.07;3.95;;;;;;;;;;5051939;28;20291;-67
2021/09/23 13:36:11;;;;;;;8.90;4.15;;;;;;;;;;5051781;28;20025;-66
2021/09/23 13:38:36;;;;;;;7.55;4.25;;;;;;;;;;5052105;28;20023;-66
2021/09/23 13:41:02;;;;;;;16.23;3.17;;;;;;;;;;5051907;28;20032;-67
2021/09/23 13:43:28;;;;;;;11.85;3.42;;;;;;;;;;5051939;28;20243;-66
2021/09/23 13:45:53;;;;;;;14.38;3.30;;;;;;;;;;5051213;28;20032;-68
2021/09/23 13:48:19;;;;;;;10.05;3.78;;;;;;;;;;5051660;28;20036;-66
2021/09/23 13:50:45;;;;;;;7.25;3.53;;;;;;;;;;5052153;28;20021;-65
2021/09/23 13:53:10;;;;;;;11.93;3.80;;;;;;;;;;5051590;28;20358;-66
2021/09/23 13:55:35;;;;;;;9.77;4.13;;;;;;;;;;5052031;28;20075;-65
2021/09/23 13:58:01;;;;;;;5.30;2.90;;;;;;;;;;5051247;28;20032;-66
2021/09/23 14:00:27;;;;;;;17.85;4.65;;;;;;;;;;5051881;28;20021;-66
2021/09/23 14:02:52;;;;;;;10.38;3.75;;;;;;;;;;5050968;28;20389;-66
2021/09/23 14:05:17;;;;;;;17.92;3.97;;;;;;;;;;5051612;28;20037;-67
2021/09/23 14:07:46;;;;;;;7.78;3.70;;;;;;;;;;5051666;28;20017;-67
2021/09/23 14:10:12;;;;;;;9.10;3.53;;;;;;;;;;5051235;28;20017;-67
2021/09/23 14:12:38;;;;;;;10.75;3.65;;;;;;;;;;5051623;28;20109;-66
2021/09/23 14:15:04;;;;;;;15.65;3.90;;;;;;;;;;5051522;28;20031;-65
2021/09/23 14:17:29;;;;;;;8.63;3.30;;;;;;;;;;5051182;28;20590;-66
2021/09/23 14:19:54;;;;;;;7.63;2.90;;;;;;;;;;5051276;28;20033;-67
2021/09/23 14:22:19;;;;;;;11.27;3.67;;;;;;;;;;5051118;28;20056;-67
2021/09/23 14:24:45;;;;;;;13.30;3.38;;;;;;;;;;5050111;28;20344;-67